sensor_id;sensor_type;location;lat;lon;timestamp;pressure;altitude;pressure_sealevel;temperature;humidity
51603;BME280;37954;51.980;5.850;2023-04-10T00:03:18;101797.13;;;10.64;55.68
51603;BME280;37954;51.980;5.850;2023-04-10T00:07:29;101819.47;;;10.64;55.94
51603;BME280;37954;51.980;5.850;2023-04-10T00:11:42;101823.56;;;10.60;55.87
51603;BME280;37954;51.980;5.850;2023-04-10T00:15:53;101813.44;;;10.56;55.85
51603;BME280;37954;51.980;5.850;2023-04-10T00:20:05;101802.69;;;10.56;56.00
51603;BME280;37954;51.980;5.850;2023-04-10T00:24:17;101775.31;;;10.45;56.12
51603;BME280;37954;51.980;5.850;2023-04-10T00:28:29;101766.19;;;10.40;56.52
51603;BME280;37954;51.980;5.850;2023-04-10T00:32:40;101766.19;;;10.40;56.53
51603;BME280;37954;51.980;5.850;2023-04-10T00:36:53;101767.63;;;10.36;57.04
51603;BME280;37954;51.980;5.850;2023-04-10T00:41:05;101754.97;;;10.30;56.86
51603;BME280;37954;51.980;5.850;2023-04-10T00:45:17;101750.19;;;10.25;57.16
51603;BME280;37954;51.980;5.850;2023-04-10T00:49:29;101731.06;;;10.13;57.49
51603;BME280;37954;51.980;5.850;2023-04-10T00:53:41;101729.22;;;10.14;57.57
51603;BME280;37954;51.980;5.850;2023-04-10T00:57:54;101729.66;;;10.18;57.51
51603;BME280;37954;51.980;5.850;2023-04-10T01:02:06;101723.03;;;10.13;57.72
51603;BME280;37954;51.980;5.850;2023-04-10T01:11:08;101715.94;;;10.06;57.78
51603;BME280;37954;51.980;5.850;2023-04-10T01:15:24;101719.22;;;10.01;58.40
51603;BME280;37954;51.980;5.850;2023-04-10T01:28:43;101721.47;;;9.98;58.87
51603;BME280;37954;51.980;5.850;2023-04-10T01:32:59;101717.44;;;9.87;58.75
51603;BME280;37954;51.980;5.850;2023-04-10T01:37:16;101717.84;;;9.84;59.11
51603;BME280;37954;51.980;5.850;2023-04-10T01:41:31;101717.41;;;9.81;59.02
51603;BME280;37954;51.980;5.850;2023-04-10T01:45:45;101706.88;;;9.79;59.17
51603;BME280;37954;51.980;5.850;2023-04-10T01:49:59;101709.94;;;9.76;59.49
51603;BME280;37954;51.980;5.850;2023-04-10T01:54:13;101706.88;;;9.79;59.51
51603;BME280;37954;51.980;5.850;2023-04-10T01:58:25;101707.44;;;9.74;59.31
51603;BME280;37954;51.980;5.850;2023-04-10T02:02:40;101699.19;;;9.76;60.05
51603;BME280;37954;51.980;5.850;2023-04-10T02:07:02;101701.31;;;9.81;59.87
51603;BME280;37954;51.980;5.850;2023-04-10T02:11:33;101691.78;;;9.78;59.67
51603;BME280;37954;51.980;5.850;2023-04-10T02:15:49;101693.25;;;9.81;60.03
51603;BME280;37954;51.980;5.850;2023-04-10T02:20:03;101689.28;;;9.76;59.81
51603;BME280;37954;51.980;5.850;2023-04-10T02:24:18;101677.28;;;9.72;59.84
51603;BME280;37954;51.980;5.850;2023-04-10T02:28:31;101679.75;;;9.67;60.08
51603;BME280;37954;51.980;5.850;2023-04-10T02:32:42;101666.66;;;9.58;60.50
51603;BME280;37954;51.980;5.850;2023-04-10T02:36:54;101670.16;;;9.58;60.27
51603;BME280;37954;51.980;5.850;2023-04-10T02:41:06;101678.59;;;9.55;60.34
51603;BME280;37954;51.980;5.850;2023-04-10T02:45:18;101674.03;;;9.49;60.77
51603;BME280;37954;51.980;5.850;2023-04-10T02:49:29;101664.44;;;9.40;60.62
51603;BME280;37954;51.980;5.850;2023-04-10T02:53:51;101661.28;;;9.36;60.88
51603;BME280;37954;51.980;5.850;2023-04-10T02:58:12;101658.19;;;9.33;61.19
51603;BME280;37954;51.980;5.850;2023-04-10T03:02:25;101652.38;;;9.29;61.38
51603;BME280;37954;51.980;5.850;2023-04-10T03:06:40;101650.53;;;9.30;61.50
51603;BME280;37954;51.980;5.850;2023-04-10T03:10:51;101657.47;;;9.24;61.80
51603;BME280;37954;51.980;5.850;2023-04-10T03:15:03;101660.81;;;9.26;61.49
51603;BME280;37954;51.980;5.850;2023-04-10T03:19:15;101658.69;;;9.22;61.47
51603;BME280;37954;51.980;5.850;2023-04-10T03:23:27;101666.91;;;9.20;61.37
51603;BME280;37954;51.980;5.850;2023-04-10T03:27:40;101666.09;;;9.20;61.51
51603;BME280;37954;51.980;5.850;2023-04-10T03:31:52;101643.88;;;9.04;61.67
51603;BME280;37954;51.980;5.850;2023-04-10T03:36:04;101669.75;;;9.12;61.64
51603;BME280;37954;51.980;5.850;2023-04-10T03:40:17;101648.59;;;9.02;61.96
51603;BME280;37954;51.980;5.850;2023-04-10T03:44:28;101657.22;;;8.98;62.05
51603;BME280;37954;51.980;5.850;2023-04-10T03:48:40;101653.44;;;8.92;62.38
51603;BME280;37954;51.980;5.850;2023-04-10T03:52:53;101652.81;;;8.90;62.89
51603;BME280;37954;51.980;5.850;2023-04-10T03:57:07;101645.97;;;8.88;62.27
51603;BME280;37954;51.980;5.850;2023-04-10T04:01:19;101628.56;;;8.77;62.55
51603;BME280;37954;51.980;5.850;2023-04-10T04:05:48;101642.78;;;8.78;62.44
51603;BME280;37954;51.980;5.850;2023-04-10T04:10:32;101637.06;;;8.66;62.90
51603;BME280;37954;51.980;5.850;2023-04-10T04:15:07;101624.63;;;8.58;63.24
51603;BME280;37954;51.980;5.850;2023-04-10T04:19:45;101628.16;;;8.59;63.18
51603;BME280;37954;51.980;5.850;2023-04-10T04:24:29;101629.16;;;8.58;63.27
51603;BME280;37954;51.980;5.850;2023-04-10T04:28:48;101620.31;;;8.57;63.45
51603;BME280;37954;51.980;5.850;2023-04-10T04:33:28;101604.41;;;8.56;63.51
51603;BME280;37954;51.980;5.850;2023-04-10T04:37:44;101609.88;;;8.62;63.58
51603;BME280;37954;51.980;5.850;2023-04-10T04:42:19;101612.06;;;8.59;63.41
51603;BME280;37954;51.980;5.850;2023-04-10T04:46:51;101602.19;;;8.59;63.54
51603;BME280;37954;51.980;5.850;2023-04-10T04:51:11;101610.50;;;8.64;63.69
51603;BME280;37954;51.980;5.850;2023-04-10T04:55:33;101609.28;;;8.67;63.43
51603;BME280;37954;51.980;5.850;2023-04-10T05:00:20;101604.56;;;8.69;63.51
51603;BME280;37954;51.980;5.850;2023-04-10T05:04:54;101596.34;;;8.70;63.13
51603;BME280;37954;51.980;5.850;2023-04-10T05:09:13;101589.41;;;8.76;63.51
51603;BME280;37954;51.980;5.850;2023-04-10T05:13:43;101583.28;;;8.82;63.19
51603;BME280;37954;51.980;5.850;2023-04-10T05:18:07;101591.38;;;8.89;63.30
51603;BME280;37954;51.980;5.850;2023-04-10T05:22:36;101575.56;;;8.94;63.12
51603;BME280;37954;51.980;5.850;2023-04-10T05:26:58;101584.47;;;9.01;62.78
51603;BME280;37954;51.980;5.850;2023-04-10T05:31:24;101584.66;;;9.21;62.87
51603;BME280;37954;51.980;5.850;2023-04-10T05:36:11;101585.31;;;9.51;62.23
51603;BME280;37954;51.980;5.850;2023-04-10T05:40:36;101594.28;;;9.64;61.89
51603;BME280;37954;51.980;5.850;2023-04-10T05:45:06;101581.06;;;9.63;61.71
51603;BME280;37954;51.980;5.850;2023-04-10T05:49:44;101582.53;;;9.65;61.41
51603;BME280;37954;51.980;5.850;2023-04-10T05:54:16;101586.94;;;9.80;61.28
51603;BME280;37954;51.980;5.850;2023-04-10T05:59:06;101587.94;;;10.13;60.88
51603;BME280;37954;51.980;5.850;2023-04-10T06:03:39;101582.75;;;10.46;60.17
51603;BME280;37954;51.980;5.850;2023-04-10T06:07:51;101582.00;;;10.78;59.89
51603;BME280;37954;51.980;5.850;2023-04-10T06:12:03;101580.19;;;11.12;59.21
51603;BME280;37954;51.980;5.850;2023-04-10T06:16:15;101570.66;;;11.36;58.35
51603;BME280;37954;51.980;5.850;2023-04-10T06:20:28;101563.38;;;11.69;57.41
51603;BME280;37954;51.980;5.850;2023-04-10T06:24:40;101544.13;;;11.66;56.54
51603;BME280;37954;51.980;5.850;2023-04-10T06:28:51;101552.59;;;11.82;56.15
51603;BME280;37954;51.980;5.850;2023-04-10T06:33:03;101545.53;;;11.95;55.80
51603;BME280;37954;51.980;5.850;2023-04-10T06:37:18;101543.34;;;12.23;55.52
51603;BME280;37954;51.980;5.850;2023-04-10T06:41:30;101540.34;;;12.44;54.72
51603;BME280;37954;51.980;5.850;2023-04-10T06:45:51;101536.84;;;12.75;53.81
51603;BME280;37954;51.980;5.850;2023-04-10T06:50:03;101535.97;;;13.06;53.27
51603;BME280;37954;51.980;5.850;2023-04-10T06:54:14;101541.09;;;13.14;53.27
51603;BME280;37954;51.980;5.850;2023-04-10T06:58:26;101529.91;;;13.11;52.63
51603;BME280;37954;51.980;5.850;2023-04-10T07:02:38;101511.78;;;13.24;52.71
51603;BME280;37954;51.980;5.850;2023-04-10T07:06:50;101512.31;;;13.51;52.12
51603;BME280;37954;51.980;5.850;2023-04-10T07:11:01;101505.97;;;13.82;51.68
51603;BME280;37954;51.980;5.850;2023-04-10T07:15:13;101487.78;;;14.08;51.15
51603;BME280;37954;51.980;5.850;2023-04-10T07:19:24;101479.97;;;14.18;50.09
51603;BME280;37954;51.980;5.850;2023-04-10T07:23:36;101455.53;;;14.24;49.79
51603;BME280;37954;51.980;5.850;2023-04-10T07:27:49;101459.88;;;14.44;49.36
51603;BME280;37954;51.980;5.850;2023-04-10T07:32:00;101445.00;;;14.35;48.88
51603;BME280;37954;51.980;5.850;2023-04-10T07:36:12;101427.91;;;14.22;48.81
51603;BME280;37954;51.980;5.850;2023-04-10T07:40:24;101443.63;;;14.44;48.61
51603;BME280;37954;51.980;5.850;2023-04-10T07:44:36;101420.97;;;14.56;47.74
51603;BME280;37954;51.980;5.850;2023-04-10T07:48:47;101403.94;;;14.79;47.05
51603;BME280;37954;51.980;5.850;2023-04-10T07:52:59;101419.81;;;15.11;46.76
51603;BME280;37954;51.980;5.850;2023-04-10T07:57:13;101423.69;;;15.26;45.93
51603;BME280;37954;51.980;5.850;2023-04-10T08:01:27;101408.94;;;15.46;45.93
51603;BME280;37954;51.980;5.850;2023-04-10T08:05:39;101414.44;;;15.74;45.16
51603;BME280;37954;51.980;5.850;2023-04-10T08:09:50;101408.84;;;16.54;44.86
51603;BME280;37954;51.980;5.850;2023-04-10T08:14:02;101403.13;;;17.45;43.13
51603;BME280;37954;51.980;5.850;2023-04-10T08:18:15;101393.53;;;18.39;41.63
51603;BME280;37954;51.980;5.850;2023-04-10T08:22:27;101390.31;;;19.17;40.67
51603;BME280;37954;51.980;5.850;2023-04-10T08:26:39;101392.56;;;19.30;39.27
51603;BME280;37954;51.980;5.850;2023-04-10T08:30:52;101385.44;;;19.19;38.72
51603;BME280;37954;51.980;5.850;2023-04-10T08:35:04;101385.47;;;18.82;38.62
51603;BME280;37954;51.980;5.850;2023-04-10T08:39:16;101394.50;;;18.55;39.13
51603;BME280;37954;51.980;5.850;2023-04-10T08:43:27;101377.59;;;18.16;39.03
51603;BME280;37954;51.980;5.850;2023-04-10T08:47:40;101389.06;;;17.96;39.42
51603;BME280;37954;51.980;5.850;2023-04-10T08:51:56;101370.06;;;17.96;39.36
51603;BME280;37954;51.980;5.850;2023-04-10T08:56:11;101369.50;;;18.26;39.62
51603;BME280;37954;51.980;5.850;2023-04-10T09:00:24;101370.06;;;17.96;39.31
51603;BME280;37954;51.980;5.850;2023-04-10T09:04:37;101362.78;;;18.07;39.05
51603;BME280;37954;51.980;5.850;2023-04-10T09:08:49;101369.00;;;18.29;39.45
51603;BME280;37954;51.980;5.850;2023-04-10T09:13:00;101352.06;;;18.22;39.48
51603;BME280;37954;51.980;5.850;2023-04-10T09:17:20;101363.63;;;18.07;39.61
51603;BME280;37954;51.980;5.850;2023-04-10T09:21:32;101360.38;;;17.84;39.67
51603;BME280;37954;51.980;5.850;2023-04-10T09:25:44;101346.38;;;17.70;40.18
51603;BME280;37954;51.980;5.850;2023-04-10T09:29:56;101354.53;;;17.70;40.34
51603;BME280;37954;51.980;5.850;2023-04-10T09:34:12;101326.16;;;17.61;40.15
51603;BME280;37954;51.980;5.850;2023-04-10T09:38:24;101319.19;;;17.65;40.32
51603;BME280;37954;51.980;5.850;2023-04-10T09:42:36;101319.84;;;17.55;40.45
51603;BME280;37954;51.980;5.850;2023-04-10T09:46:48;101309.78;;;17.29;40.81
51603;BME280;37954;51.980;5.850;2023-04-10T09:51:00;101297.09;;;16.91;41.09
51603;BME280;37954;51.980;5.850;2023-04-10T09:55:15;101284.13;;;16.76;41.56
51603;BME280;37954;51.980;5.850;2023-04-10T09:59:27;101264.91;;;16.78;42.08
51603;BME280;37954;51.980;5.850;2023-04-10T10:03:39;101263.00;;;16.78;42.06
51603;BME280;37954;51.980;5.850;2023-04-10T10:07:51;101243.03;;;16.67;42.50
51603;BME280;37954;51.980;5.850;2023-04-10T10:12:03;101254.22;;;16.71;42.75
51603;BME280;37954;51.980;5.850;2023-04-10T10:16:25;101239.94;;;16.59;42.84
51603;BME280;37954;51.980;5.850;2023-04-10T10:20:42;101236.31;;;16.53;42.91
51603;BME280;37954;51.980;5.850;2023-04-10T10:24:55;101230.72;;;16.60;43.02
51603;BME280;37954;51.980;5.850;2023-04-10T10:29:08;101229.38;;;16.62;43.06
51603;BME280;37954;51.980;5.850;2023-04-10T10:33:25;101238.63;;;16.83;43.10
51603;BME280;37954;51.980;5.850;2023-04-10T10:37:38;101226.84;;;16.94;43.30
51603;BME280;37954;51.980;5.850;2023-04-10T10:41:58;101212.75;;;16.97;43.23
51603;BME280;37954;51.980;5.850;2023-04-10T10:46:17;101210.00;;;17.19;43.23
51603;BME280;37954;51.980;5.850;2023-04-10T10:50:55;101192.91;;;17.46;42.97
51603;BME280;37954;51.980;5.850;2023-04-10T11:03:59;101178.16;;;18.00;42.19
51603;BME280;37954;51.980;5.850;2023-04-10T11:08:11;101152.94;;;18.15;41.85
51603;BME280;37954;51.980;5.850;2023-04-10T11:12:23;101151.16;;;18.41;41.85
51603;BME280;37954;51.980;5.850;2023-04-10T11:21:08;101146.00;;;19.17;41.56
51603;BME280;37954;51.980;5.850;2023-04-10T11:25:20;101156.09;;;19.62;40.96
51603;BME280;37954;51.980;5.850;2023-04-10T11:29:33;101129.69;;;19.68;40.20
51603;BME280;37954;51.980;5.850;2023-04-10T11:33:49;101127.97;;;20.02;39.58
51603;BME280;37954;51.980;5.850;2023-04-10T11:38:09;101098.41;;;20.30;39.06
51603;BME280;37954;51.980;5.850;2023-04-10T11:42:21;101094.25;;;20.58;38.36
51603;BME280;37954;51.980;5.850;2023-04-10T11:46:41;101097.38;;;20.15;37.80
51603;BME280;37954;51.980;5.850;2023-04-10T11:50:53;101097.75;;;19.89;38.63
51603;BME280;37954;51.980;5.850;2023-04-10T11:55:05;101074.06;;;19.74;38.93
51603;BME280;37954;51.980;5.850;2023-04-10T11:59:16;101079.25;;;19.65;39.10
51603;BME280;37954;51.980;5.850;2023-04-10T12:03:41;101073.28;;;19.53;39.34
51603;BME280;37954;51.980;5.850;2023-04-10T12:07:53;101070.00;;;19.31;39.40
51603;BME280;37954;51.980;5.850;2023-04-10T12:12:06;101072.72;;;19.36;40.01
51603;BME280;37954;51.980;5.850;2023-04-10T12:16:18;101061.81;;;19.31;40.17
51603;BME280;37954;51.980;5.850;2023-04-10T12:20:30;101053.63;;;19.41;40.17
51603;BME280;37954;51.980;5.850;2023-04-10T12:24:51;101043.84;;;19.35;39.81
51603;BME280;37954;51.980;5.850;2023-04-10T12:29:03;101051.22;;;19.55;39.72
51603;BME280;37954;51.980;5.850;2023-04-10T12:33:24;101033.47;;;19.57;39.39
51603;BME280;37954;51.980;5.850;2023-04-10T12:37:51;101018.47;;;19.60;39.71
51603;BME280;37954;51.980;5.850;2023-04-10T12:42:19;101009.25;;;19.51;38.90
51603;BME280;37954;51.980;5.850;2023-04-10T12:46:31;101016.00;;;19.63;38.88
51603;BME280;37954;51.980;5.850;2023-04-10T12:50:46;101012.22;;;19.54;38.75
51603;BME280;37954;51.980;5.850;2023-04-10T12:55:18;100996.97;;;19.53;39.32
51603;BME280;37954;51.980;5.850;2023-04-10T12:59:31;100995.63;;;19.30;39.11
51603;BME280;37954;51.980;5.850;2023-04-10T13:03:43;100989.09;;;19.21;39.33
51603;BME280;37954;51.980;5.850;2023-04-10T13:07:57;100977.38;;;19.10;39.70
51603;BME280;37954;51.980;5.850;2023-04-10T13:12:08;100942.28;;;18.89;39.97
51603;BME280;37954;51.980;5.850;2023-04-10T13:16:20;100951.81;;;18.71;40.14
51603;BME280;37954;51.980;5.850;2023-04-10T13:20:33;100930.28;;;18.44;40.54
51603;BME280;37954;51.980;5.850;2023-04-10T13:24:46;100921.31;;;18.33;40.68
51603;BME280;37954;51.980;5.850;2023-04-10T13:28:57;100912.56;;;18.21;41.07
51603;BME280;37954;51.980;5.850;2023-04-10T13:33:09;100905.22;;;18.12;41.37
51603;BME280;37954;51.980;5.850;2023-04-10T13:37:21;100893.78;;;18.04;41.92
51603;BME280;37954;51.980;5.850;2023-04-10T13:41:33;100880.47;;;17.98;41.97
51603;BME280;37954;51.980;5.850;2023-04-10T13:45:44;100872.03;;;17.94;42.10
51603;BME280;37954;51.980;5.850;2023-04-10T13:49:56;100874.72;;;17.89;42.39
51603;BME280;37954;51.980;5.850;2023-04-10T13:54:08;100869.00;;;17.86;42.40
51603;BME280;37954;51.980;5.850;2023-04-10T13:58:21;100851.59;;;17.77;42.68
51603;BME280;37954;51.980;5.850;2023-04-10T14:02:32;100840.97;;;17.70;42.85
51603;BME280;37954;51.980;5.850;2023-04-10T14:06:44;100810.81;;;17.66;42.99
51603;BME280;37954;51.980;5.850;2023-04-10T14:10:56;100808.13;;;17.87;43.03
51603;BME280;37954;51.980;5.850;2023-04-10T14:15:08;100804.63;;;18.06;42.75
51603;BME280;37954;51.980;5.850;2023-04-10T14:19:19;100798.63;;;18.09;42.96
51603;BME280;37954;51.980;5.850;2023-04-10T14:23:31;100795.09;;;18.14;42.71
51603;BME280;37954;51.980;5.850;2023-04-10T14:27:43;100783.94;;;18.21;42.87
51603;BME280;37954;51.980;5.850;2023-04-10T14:31:57;100773.34;;;18.29;42.88
51603;BME280;37954;51.980;5.850;2023-04-10T14:36:08;100768.72;;;18.30;42.36
51603;BME280;37954;51.980;5.850;2023-04-10T14:40:20;100770.31;;;18.36;42.50
51603;BME280;37954;51.980;5.850;2023-04-10T14:44:32;100766.53;;;18.32;42.65
51603;BME280;37954;51.980;5.850;2023-04-10T14:48:44;100755.63;;;18.37;42.79
51603;BME280;37954;51.980;5.850;2023-04-10T14:52:55;100764.91;;;18.21;43.79
51603;BME280;37954;51.980;5.850;2023-04-10T14:57:07;100763.00;;;18.01;44.87
51603;BME280;37954;51.980;5.850;2023-04-10T15:01:20;100768.16;;;17.67;46.53
51603;BME280;37954;51.980;5.850;2023-04-10T15:05:31;100759.91;;;17.31;49.25
51603;BME280;37954;51.980;5.850;2023-04-10T15:09:43;100781.75;;;16.99;51.77
51603;BME280;37954;51.980;5.850;2023-04-10T15:13:57;100793.81;;;16.66;52.85
51603;BME280;37954;51.980;5.850;2023-04-10T15:18:10;100767.75;;;16.23;54.76
51603;BME280;37954;51.980;5.850;2023-04-10T15:22:21;100781.03;;;15.93;56.34
51603;BME280;37954;51.980;5.850;2023-04-10T15:26:33;100772.34;;;15.64;58.90
51603;BME280;37954;51.980;5.850;2023-04-10T15:30:45;100767.00;;;15.47;60.89
51603;BME280;37954;51.980;5.850;2023-04-10T15:34:59;100737.34;;;15.30;61.85
51603;BME280;37954;51.980;5.850;2023-04-10T15:39:10;100734.03;;;15.23;62.82
51603;BME280;37954;51.980;5.850;2023-04-10T15:43:22;100718.78;;;15.17;63.09
51603;BME280;37954;51.980;5.850;2023-04-10T15:47:34;100725.78;;;15.13;62.77
51603;BME280;37954;51.980;5.850;2023-04-10T15:51:46;100705.69;;;15.09;64.07
51603;BME280;37954;51.980;5.850;2023-04-10T15:55:57;100691.31;;;15.04;64.06
51603;BME280;37954;51.980;5.850;2023-04-10T16:00:09;100675.09;;;15.04;63.58
51603;BME280;37954;51.980;5.850;2023-04-10T16:04:21;100661.75;;;14.97;63.75
51603;BME280;37954;51.980;5.850;2023-04-10T16:08:33;100655.59;;;15.02;63.54
51603;BME280;37954;51.980;5.850;2023-04-10T16:12:45;100642.31;;;15.00;63.35
51603;BME280;37954;51.980;5.850;2023-04-10T16:16:57;100653.44;;;15.04;63.00
51603;BME280;37954;51.980;5.850;2023-04-10T16:21:10;100635.59;;;15.03;62.53
51603;BME280;37954;51.980;5.850;2023-04-10T16:25:22;100627.97;;;15.00;62.90
51603;BME280;37954;51.980;5.850;2023-04-10T16:29:33;100617.47;;;15.03;63.00
51603;BME280;37954;51.980;5.850;2023-04-10T16:33:45;100601.09;;;14.88;63.53
51603;BME280;37954;51.980;5.850;2023-04-10T16:37:57;100609.47;;;14.91;63.84
51603;BME280;37954;51.980;5.850;2023-04-10T16:42:10;100611.13;;;14.92;64.10
51603;BME280;37954;51.980;5.850;2023-04-10T16:46:21;100638.78;;;15.00;64.29
51603;BME280;37954;51.980;5.850;2023-04-10T16:50:34;100631.13;;;14.91;64.20
51603;BME280;37954;51.980;5.850;2023-04-10T16:54:46;100624.06;;;14.90;64.92
51603;BME280;37954;51.980;5.850;2023-04-10T16:58:58;100621.59;;;14.84;65.64
51603;BME280;37954;51.980;5.850;2023-04-10T17:03:09;100642.91;;;14.80;65.95
51603;BME280;37954;51.980;5.850;2023-04-10T17:07:22;100656.69;;;14.79;67.15
51603;BME280;37954;51.980;5.850;2023-04-10T17:11:34;100650.78;;;14.60;67.91
51603;BME280;37954;51.980;5.850;2023-04-10T17:15:45;100652.97;;;14.24;71.40
51603;BME280;37954;51.980;5.850;2023-04-10T17:19:57;100668.97;;;14.09;72.93
51603;BME280;37954;51.980;5.850;2023-04-10T17:24:09;100682.03;;;13.96;74.99
51603;BME280;37954;51.980;5.850;2023-04-10T17:28:20;100678.84;;;13.82;76.38
51603;BME280;37954;51.980;5.850;2023-04-10T17:32:32;100686.38;;;13.63;77.17
51603;BME280;37954;51.980;5.850;2023-04-10T17:36:44;100678.19;;;13.58;78.40
51603;BME280;37954;51.980;5.850;2023-04-10T17:40:55;100678.59;;;13.50;79.23
51603;BME280;37954;51.980;5.850;2023-04-10T17:45:07;100694.44;;;13.46;80.58
51603;BME280;37954;51.980;5.850;2023-04-10T17:49:20;100678.16;;;13.41;81.54
51603;BME280;37954;51.980;5.850;2023-04-10T17:53:32;100671.78;;;13.31;82.34
51603;BME280;37954;51.980;5.850;2023-04-10T17:57:44;100663.16;;;13.34;82.60
51603;BME280;37954;51.980;5.850;2023-04-10T18:01:56;100633.50;;;13.34;83.35
51603;BME280;37954;51.980;5.850;2023-04-10T18:06:08;100623.03;;;13.37;82.75
51603;BME280;37954;51.980;5.850;2023-04-10T18:10:19;100609.97;;;13.29;83.21
51603;BME280;37954;51.980;5.850;2023-04-10T18:14:31;100603.41;;;13.25;83.64
51603;BME280;37954;51.980;5.850;2023-04-10T18:18:43;100591.91;;;13.30;83.33
51603;BME280;37954;51.980;5.850;2023-04-10T18:22:55;100568.25;;;13.20;82.92
51603;BME280;37954;51.980;5.850;2023-04-10T18:27:07;100574.94;;;13.17;83.21
51603;BME280;37954;51.980;5.850;2023-04-10T18:31:18;100568.84;;;13.22;82.56
51603;BME280;37954;51.980;5.850;2023-04-10T18:35:30;100546.25;;;13.11;82.48
51603;BME280;37954;51.980;5.850;2023-04-10T18:39:43;100557.28;;;13.10;82.69
51603;BME280;37954;51.980;5.850;2023-04-10T18:43:55;100555.22;;;13.00;82.46
51603;BME280;37954;51.980;5.850;2023-04-10T18:48:16;100552.53;;;13.00;82.52
51603;BME280;37954;51.980;5.850;2023-04-10T18:52:27;100577.28;;;12.97;83.09
51603;BME280;37954;51.980;5.850;2023-04-10T18:56:39;100583.25;;;12.99;83.30
51603;BME280;37954;51.980;5.850;2023-04-10T19:00:52;100575.97;;;13.00;83.36
51603;BME280;37954;51.980;5.850;2023-04-10T19:05:04;100578.94;;;12.98;84.04
51603;BME280;37954;51.980;5.850;2023-04-10T19:09:16;100541.34;;;12.92;83.67
51603;BME280;37954;51.980;5.850;2023-04-10T19:13:27;100553.16;;;12.90;83.72
51603;BME280;37954;51.980;5.850;2023-04-10T19:17:39;100556.00;;;12.84;84.54
51603;BME280;37954;51.980;5.850;2023-04-10T19:21:51;100607.00;;;12.85;84.31
51603;BME280;37954;51.980;5.850;2023-04-10T19:26:03;100595.16;;;12.86;84.56
51603;BME280;37954;51.980;5.850;2023-04-10T19:30:14;100545.47;;;12.82;84.40
51603;BME280;37954;51.980;5.850;2023-04-10T19:34:26;100527.66;;;12.81;84.54
51603;BME280;37954;51.980;5.850;2023-04-10T19:38:38;100496.06;;;12.77;84.91
51603;BME280;37954;51.980;5.850;2023-04-10T19:42:51;100519.03;;;12.79;84.78
51603;BME280;37954;51.980;5.850;2023-04-10T19:47:03;100555.78;;;12.85;83.74
51603;BME280;37954;51.980;5.850;2023-04-10T19:51:15;100543.53;;;12.78;84.81
51603;BME280;37954;51.980;5.850;2023-04-10T19:55:27;100552.75;;;12.82;84.70
51603;BME280;37954;51.980;5.850;2023-04-10T19:59:38;100535.34;;;12.73;84.63
51603;BME280;37954;51.980;5.850;2023-04-10T20:03:50;100530.09;;;12.66;84.33
51603;BME280;37954;51.980;5.850;2023-04-10T20:08:02;100532.19;;;12.64;84.64
51603;BME280;37954;51.980;5.850;2023-04-10T20:12:14;100541.09;;;12.65;84.25
51603;BME280;37954;51.980;5.850;2023-04-10T20:16:26;100511.78;;;12.51;84.33
51603;BME280;37954;51.980;5.850;2023-04-10T20:20:38;100526.75;;;12.59;84.49
51603;BME280;37954;51.980;5.850;2023-04-10T20:24:49;100523.22;;;12.59;84.29
51603;BME280;37954;51.980;5.850;2023-04-10T20:29:01;100505.31;;;12.52;83.77
51603;BME280;37954;51.980;5.850;2023-04-10T20:33:13;100517.50;;;12.55;84.21
51603;BME280;37954;51.980;5.850;2023-04-10T20:37:25;100512.00;;;12.50;83.83
51603;BME280;37954;51.980;5.850;2023-04-10T20:41:36;100496.81;;;12.44;83.85
51603;BME280;37954;51.980;5.850;2023-04-10T20:45:48;100499.00;;;12.47;83.36
51603;BME280;37954;51.980;5.850;2023-04-10T20:50:00;100500.47;;;12.38;83.06
51603;BME280;37954;51.980;5.850;2023-04-10T20:54:11;100509.63;;;12.37;83.30
51603;BME280;37954;51.980;5.850;2023-04-10T20:58:23;100508.78;;;12.36;83.12
51603;BME280;37954;51.980;5.850;2023-04-10T21:02:34;100506.16;;;12.25;83.10
51603;BME280;37954;51.980;5.850;2023-04-10T21:06:46;100495.41;;;12.13;82.88
51603;BME280;37954;51.980;5.850;2023-04-10T21:10:58;100500.25;;;12.11;82.71
51603;BME280;37954;51.980;5.850;2023-04-10T21:15:10;100498.41;;;11.88;83.50
51603;BME280;37954;51.980;5.850;2023-04-10T21:19:22;100492.56;;;11.79;83.49
51603;BME280;37954;51.980;5.850;2023-04-10T21:23:33;100520.53;;;11.78;83.58
51603;BME280;37954;51.980;5.850;2023-04-10T21:27:45;100508.72;;;11.79;84.26
51603;BME280;37954;51.980;5.850;2023-04-10T21:31:57;100523.34;;;11.83;85.25
51603;BME280;37954;51.980;5.850;2023-04-10T21:36:08;100515.63;;;11.87;84.55
51603;BME280;37954;51.980;5.850;2023-04-10T21:40:20;100510.47;;;11.74;84.79
51603;BME280;37954;51.980;5.850;2023-04-10T21:44:32;100494.31;;;11.62;84.76
51603;BME280;37954;51.980;5.850;2023-04-10T21:48:45;100481.59;;;11.58;84.76
51603;BME280;37954;51.980;5.850;2023-04-10T21:52:57;100484.72;;;11.66;85.00
51603;BME280;37954;51.980;5.850;2023-04-10T21:57:10;100476.91;;;11.65;85.27
51603;BME280;37954;51.980;5.850;2023-04-10T22:01:22;100486.03;;;11.64;85.45
51603;BME280;37954;51.980;5.850;2023-04-10T22:05:34;100462.53;;;11.59;85.37
51603;BME280;37954;51.980;5.850;2023-04-10T22:09:46;100486.13;;;11.69;85.19
51603;BME280;37954;51.980;5.850;2023-04-10T22:13:57;100488.00;;;11.80;85.23
51603;BME280;37954;51.980;5.850;2023-04-10T22:18:23;100471.03;;;11.79;84.90
51603;BME280;37954;51.980;5.850;2023-04-10T22:22:35;100475.38;;;11.80;84.37
51603;BME280;37954;51.980;5.850;2023-04-10T22:26:46;100470.00;;;11.80;84.22
51603;BME280;37954;51.980;5.850;2023-04-10T22:30:58;100467.19;;;11.75;84.12
51603;BME280;37954;51.980;5.850;2023-04-10T22:35:10;100458.63;;;11.78;83.94
51603;BME280;37954;51.980;5.850;2023-04-10T22:39:21;100460.38;;;11.84;83.81
51603;BME280;37954;51.980;5.850;2023-04-10T22:43:33;100451.66;;;11.77;83.41